createdAt,value
2019-04-10T00:00:37.418Z,5.50
2019-04-10T00:03:06.914Z,5.50
2019-04-10T00:05:36.285Z,5.50
2019-04-10T00:08:06.199Z,5.50
2019-04-10T00:10:36.212Z,5.50
2019-04-10T00:13:06.564Z,5.50
2019-04-10T00:15:36.182Z,5.50
2019-04-10T00:18:05.646Z,5.40
2019-04-10T00:20:36.606Z,5.40
2019-04-10T00:23:06.794Z,5.40
2019-04-10T00:25:37.105Z,5.40
2019-04-10T00:28:08.005Z,5.40
2019-04-10T00:30:37.644Z,5.40
2019-04-10T00:33:08.118Z,5.40
2019-04-10T00:35:37.753Z,5.40
2019-04-10T00:38:07.231Z,5.40
2019-04-10T00:40:37.040Z,5.40
2019-04-10T00:43:06.667Z,5.30
2019-04-10T00:45:36.238Z,5.30
2019-04-10T00:48:05.890Z,5.30
2019-04-10T00:50:35.270Z,5.30
2019-04-10T00:53:05.073Z,5.30
2019-04-10T00:55:35.528Z,5.30
2019-04-10T00:58:05.827Z,5.30
2019-04-10T01:00:36.816Z,5.30
2019-04-10T01:03:07.398Z,5.30
2019-04-10T01:05:37.618Z,5.30
2019-04-10T01:08:07.127Z,5.30
2019-04-10T01:10:38.679Z,5.30
2019-04-10T01:13:08.359Z,5.30
2019-04-10T01:15:38.574Z,5.30
2019-04-10T01:18:08.061Z,5.30
2019-04-10T01:20:37.738Z,5.30
2019-04-10T01:23:07.896Z,5.30
2019-04-10T01:25:37.394Z,5.30
2019-04-10T01:28:06.837Z,5.30
2019-04-10T01:30:36.250Z,5.30
2019-04-10T01:33:06.180Z,5.30
2019-04-10T01:35:35.616Z,5.30
2019-04-10T01:38:06.425Z,5.20
2019-04-10T01:40:37.329Z,5.30
2019-04-10T01:43:12.880Z,5.30
2019-04-10T01:45:39.751Z,5.20
2019-04-10T01:48:10.377Z,5.20
2019-04-10T01:50:39.743Z,5.20
2019-04-10T01:53:09.191Z,5.20
2019-04-10T01:55:38.818Z,5.20
2019-04-10T01:58:10.628Z,5.20
2019-04-10T02:00:43.785Z,5.20
2019-04-10T02:03:13.902Z,5.10
2019-04-10T02:05:43.419Z,5.20
2019-04-10T02:08:15.013Z,5.10
2019-04-10T02:10:44.626Z,5.10
2019-04-10T02:13:14.909Z,5.10
2019-04-10T02:15:46.068Z,5.10
2019-04-10T02:18:15.549Z,5.10
2019-04-10T02:20:45.198Z,5.10
2019-04-10T02:23:14.646Z,5.10
2019-04-10T02:25:45.081Z,5.00
2019-04-10T02:28:13.931Z,5.10
2019-04-10T02:30:43.706Z,5.00
2019-04-10T02:33:13.933Z,5.00
2019-04-10T02:35:43.587Z,5.00
2019-04-10T02:38:30.583Z,5.00
2019-04-10T02:40:57.536Z,5.00
2019-04-10T02:43:27.344Z,5.00
2019-04-10T02:45:57.702Z,5.00
2019-04-10T02:48:27.575Z,4.90
2019-04-10T02:50:57.598Z,5.00
2019-04-10T02:53:27.632Z,4.90
2019-04-10T02:55:58.290Z,4.90
2019-04-10T02:58:28.181Z,4.90
2019-04-10T03:00:58.964Z,4.90
2019-04-10T03:03:29.820Z,4.80
2019-04-10T03:05:59.451Z,4.80
2019-04-10T03:08:44.657Z,4.80
2019-04-10T03:11:04.209Z,4.80
2019-04-10T03:13:33.531Z,4.80
2019-04-10T03:16:03.111Z,4.80
2019-04-10T03:18:32.706Z,4.80
2019-04-10T03:21:02.720Z,4.80
2019-04-10T03:23:32.162Z,4.80
2019-04-10T03:26:01.568Z,4.80
2019-04-10T03:28:31.980Z,4.80
2019-04-10T03:31:03.491Z,4.80
2019-04-10T03:33:37.474Z,4.70
2019-04-10T03:36:05.350Z,4.70
2019-04-10T03:38:47.335Z,4.70
2019-04-10T03:41:06.025Z,4.70
2019-04-10T03:43:36.123Z,4.70
2019-04-10T03:46:05.622Z,4.70
2019-04-10T03:48:35.002Z,4.70
2019-04-10T03:51:04.351Z,4.70
2019-04-10T03:53:34.060Z,4.70
2019-04-10T03:56:03.879Z,4.70
2019-04-10T03:58:33.601Z,4.70
2019-04-10T04:01:03.055Z,4.70
2019-04-10T04:03:32.942Z,4.60
2019-04-10T04:06:03.520Z,4.70
2019-04-10T04:08:35.285Z,4.60
2019-04-10T04:11:04.932Z,4.60
2019-04-10T04:13:35.447Z,4.60
2019-04-10T04:16:06.677Z,4.60
2019-04-10T04:18:37.468Z,4.60
2019-04-10T04:21:07.643Z,4.60
2019-04-10T04:23:38.191Z,4.60
2019-04-10T04:26:08.810Z,4.60
2019-04-10T04:28:38.211Z,4.60
2019-04-10T04:31:07.598Z,4.60
2019-04-10T04:33:36.947Z,4.60
2019-04-10T04:36:06.395Z,4.60
2019-04-10T04:38:36.748Z,4.60
2019-04-10T04:41:06.844Z,4.60
2019-04-10T04:43:37.039Z,4.60
2019-04-10T04:46:06.600Z,4.60
2019-04-10T04:48:36.860Z,4.50
2019-04-10T04:51:06.733Z,4.60
2019-04-10T04:53:36.420Z,4.60
2019-04-10T04:56:05.890Z,4.50
2019-04-10T04:58:36.342Z,4.50
2019-04-10T05:01:06.298Z,4.50
2019-04-10T05:03:37.460Z,4.50
2019-04-10T05:06:08.609Z,4.50
2019-04-10T05:08:39.944Z,4.50
2019-04-10T05:11:09.849Z,4.50
2019-04-10T05:13:40.093Z,4.50
2019-04-10T05:16:10.161Z,4.50
2019-04-10T05:18:39.669Z,4.50
2019-04-10T05:21:09.020Z,4.50
2019-04-10T05:23:38.534Z,4.50
2019-04-10T05:26:08.169Z,4.50
2019-04-10T05:28:38.133Z,4.50
2019-04-10T05:31:08.638Z,4.50
2019-04-10T05:33:38.705Z,4.50
2019-04-10T05:36:08.944Z,4.50
2019-04-10T05:38:38.446Z,4.40
2019-04-10T05:41:07.805Z,4.50
2019-04-10T05:43:38.105Z,4.50
2019-04-10T05:46:07.644Z,4.50
2019-04-10T05:48:37.019Z,4.50
2019-04-10T05:51:07.980Z,4.50
2019-04-10T05:53:37.589Z,4.50
2019-04-10T05:56:09.857Z,4.60
2019-04-10T05:58:39.331Z,4.60
2019-04-10T06:01:09.503Z,4.60
2019-04-10T06:03:39.042Z,4.60
2019-04-10T06:06:28.485Z,4.60
2019-04-10T06:08:58.359Z,4.70
2019-04-10T06:11:28.903Z,4.70
2019-04-10T06:13:59.129Z,4.70
2019-04-10T06:16:28.689Z,4.70
2019-04-10T06:18:58.006Z,4.70
2019-04-10T06:21:28.775Z,4.70
2019-04-10T06:23:58.493Z,4.70
2019-04-10T06:26:32.338Z,4.80
2019-04-10T06:29:02.829Z,4.80
2019-04-10T06:31:32.592Z,4.90
2019-04-10T06:34:02.142Z,4.90
2019-04-10T06:36:31.560Z,4.90
2019-04-10T06:39:00.946Z,4.90
2019-04-10T06:41:32.708Z,4.90
2019-04-10T06:44:02.211Z,4.90
2019-04-10T06:46:32.627Z,5.00
2019-04-10T06:49:02.957Z,5.00
2019-04-10T06:51:33.428Z,5.10
2019-04-10T06:54:08.078Z,5.10
2019-04-10T06:56:34.106Z,5.10
2019-04-10T06:59:04.541Z,5.10
2019-04-10T07:01:43.474Z,5.20
2019-04-10T07:04:07.604Z,5.20
2019-04-10T07:06:47.221Z,5.20
2019-04-10T07:09:09.566Z,5.30
2019-04-10T07:11:40.678Z,5.30
2019-04-10T07:14:12.608Z,5.30
2019-04-10T07:16:42.255Z,5.40
2019-04-10T07:19:13.169Z,5.40
2019-04-10T07:21:43.246Z,5.40
2019-04-10T07:24:14.993Z,5.50
2019-04-10T07:26:46.600Z,5.50
2019-04-10T07:29:18.686Z,5.60
2019-04-10T07:31:46.708Z,5.60
2019-04-10T07:34:20.076Z,5.60
2019-04-10T07:36:47.265Z,5.70
2019-04-10T07:39:17.349Z,5.70
2019-04-10T07:41:47.437Z,5.80
2019-04-10T07:44:17.320Z,5.80
2019-04-10T07:46:50.797Z,5.80
2019-04-10T07:49:21.920Z,5.90
2019-04-10T07:51:52.031Z,5.90
2019-04-10T07:54:24.627Z,5.90
2019-04-10T07:56:55.689Z,5.90
2019-04-10T07:59:25.250Z,6.00
2019-04-10T08:02:00.746Z,6.00
2019-04-10T08:04:31.063Z,6.10
2019-04-10T08:07:00.957Z,6.20
2019-04-10T08:09:30.570Z,6.30
2019-04-10T08:12:00.854Z,6.30
2019-04-10T08:14:31.506Z,6.40
2019-04-10T08:17:06.665Z,6.50
2019-04-10T08:19:37.447Z,6.60
2019-04-10T08:22:08.191Z,6.60
2019-04-10T08:24:38.552Z,6.70
2019-04-10T08:27:10.293Z,6.70
2019-04-10T08:29:40.798Z,6.80
2019-04-10T08:32:10.298Z,6.80
2019-04-10T08:34:40.055Z,6.90
2019-04-10T08:37:10.317Z,7.00
2019-04-10T08:39:43.011Z,7.00
2019-04-10T08:42:10.922Z,7.00
2019-04-10T08:44:40.507Z,7.00
2019-04-10T08:47:11.012Z,7.00
2019-04-10T08:49:41.169Z,7.10
2019-04-10T08:52:12.267Z,7.10
2019-04-10T08:54:44.708Z,7.00
2019-04-10T08:57:14.270Z,7.00
2019-04-10T08:59:44.520Z,7.10
2019-04-10T09:02:14.943Z,7.20
2019-04-10T09:04:49.025Z,7.20
2019-04-10T09:07:18.561Z,7.20
2019-04-10T09:09:48.263Z,7.20
2019-04-10T09:12:18.307Z,7.30
2019-04-10T09:14:47.709Z,7.30
2019-04-10T09:17:17.534Z,7.30
2019-04-10T09:19:47.016Z,7.30
2019-04-10T09:22:17.992Z,7.30
2019-04-10T09:24:49.522Z,7.30
2019-04-10T09:27:19.431Z,7.30
2019-04-10T09:29:48.843Z,7.30
2019-04-10T09:32:18.320Z,7.40
2019-04-10T09:34:49.873Z,7.40
2019-04-10T09:37:19.322Z,7.40
2019-04-10T09:39:51.734Z,7.40
2019-04-10T09:42:21.520Z,7.40
2019-04-10T09:44:51.030Z,7.50
2019-04-10T09:47:20.625Z,7.50
2019-04-10T09:49:51.814Z,7.50
2019-04-10T09:52:21.749Z,7.50
2019-04-10T09:54:51.446Z,7.50
2019-04-10T09:57:20.889Z,7.50
2019-04-10T09:59:50.911Z,7.50
2019-04-10T10:02:20.306Z,7.50
2019-04-10T10:04:51.211Z,7.50
2019-04-10T10:07:20.787Z,7.50
2019-04-10T10:09:51.338Z,7.50
2019-04-10T10:12:22.037Z,7.50
2019-04-10T10:14:51.925Z,7.50
2019-04-10T10:17:22.365Z,7.40
2019-04-10T10:19:53.523Z,7.50
2019-04-10T10:22:26.007Z,7.50
2019-04-10T10:24:56.747Z,7.50
2019-04-10T10:27:26.921Z,7.50
2019-04-10T10:29:56.524Z,7.50
2019-04-10T10:32:26.702Z,7.50
2019-04-10T10:34:57.127Z,7.50
2019-04-10T10:37:26.851Z,7.60
2019-04-10T10:39:56.301Z,7.50
2019-04-10T10:42:27.585Z,7.60
2019-04-10T10:44:58.468Z,7.60
2019-04-10T10:47:29.271Z,7.70
2019-04-10T10:49:59.247Z,7.70
2019-04-10T10:52:33.069Z,7.70
2019-04-10T10:55:02.952Z,7.70
2019-04-10T10:57:33.479Z,7.80
2019-04-10T11:00:04.049Z,7.80
2019-04-10T11:02:35.862Z,7.80
2019-04-10T11:05:08.925Z,7.90
2019-04-10T11:07:42.888Z,7.90
2019-04-10T11:10:12.591Z,7.90
2019-04-10T11:12:42.378Z,8.00
2019-04-10T11:15:12.342Z,8.00
2019-04-10T11:17:42.182Z,8.00
2019-04-10T11:20:12.648Z,8.00
2019-04-10T11:22:42.520Z,8.00
2019-04-10T11:25:12.297Z,8.10
2019-04-10T11:27:42.775Z,8.00
2019-04-10T11:30:12.607Z,8.10
2019-04-10T11:32:42.408Z,8.10
2019-04-10T11:35:13.060Z,8.10
2019-04-10T11:40:16.358Z,8.10
2019-04-10T11:42:47.055Z,8.10
2019-04-10T11:45:18.585Z,8.10
2019-04-10T11:47:50.758Z,8.10
2019-04-10T11:50:18.909Z,8.10
2019-04-10T11:52:53.239Z,8.10
2019-04-10T11:55:21.189Z,8.20
2019-04-10T11:57:51.643Z,8.20
2019-04-10T12:00:27.232Z,8.20
2019-04-10T12:02:57.214Z,8.30
2019-04-10T12:05:28.732Z,8.40
2019-04-10T12:08:20.977Z,8.40
2019-04-10T12:12:59.914Z,8.40
2019-04-10T12:15:29.310Z,8.50
2019-04-10T12:17:58.753Z,8.50
2019-04-10T12:20:29.138Z,8.50
2019-04-10T12:22:58.741Z,8.50
2019-04-10T12:25:29.053Z,8.50
2019-04-10T12:27:58.592Z,8.50
2019-04-10T12:30:28.885Z,8.50
2019-04-10T12:32:58.436Z,8.50
2019-04-10T12:35:27.897Z,8.50
2019-04-10T12:38:02.542Z,8.50
2019-04-10T12:40:28.746Z,8.50
2019-04-10T12:42:58.789Z,8.50
2019-04-10T12:45:28.375Z,8.60
2019-04-10T12:47:58.554Z,8.60
2019-04-10T12:50:28.697Z,8.60
2019-04-10T12:52:58.854Z,8.70
2019-04-10T12:55:28.450Z,8.70
2019-04-10T12:58:06.522Z,8.70
2019-04-10T13:00:29.002Z,8.70
2019-04-10T13:02:58.653Z,8.70
2019-04-10T13:05:29.242Z,8.70
2019-04-10T13:08:06.440Z,8.70
2019-04-10T13:10:31.639Z,8.70
2019-04-10T13:13:01.931Z,8.70
2019-04-10T13:15:31.891Z,8.70
2019-04-10T13:18:01.416Z,8.70
2019-04-10T13:20:31.609Z,8.70
2019-04-10T13:23:01.025Z,8.70
2019-04-10T13:25:30.420Z,8.70
2019-04-10T13:27:59.872Z,8.70
2019-04-10T13:30:40.569Z,8.70
2019-04-10T13:33:00.492Z,8.80
2019-04-10T13:35:30.293Z,8.80
2019-04-10T13:38:00.918Z,8.80
2019-04-10T13:40:30.558Z,8.80
2019-04-10T13:43:01.211Z,8.80
2019-04-10T13:45:31.154Z,8.80
2019-04-10T13:48:00.621Z,8.70
2019-04-10T13:50:30.722Z,8.70
2019-04-10T13:53:00.336Z,8.70
2019-04-10T13:55:30.536Z,8.70
2019-04-10T13:58:01.308Z,8.70
2019-04-10T14:00:33.534Z,8.70
2019-04-10T14:03:03.880Z,8.80
2019-04-10T14:05:34.058Z,8.80
2019-04-10T14:08:04.831Z,8.80
2019-04-10T14:10:35.308Z,8.80
2019-04-10T14:13:05.269Z,8.80
2019-04-10T14:15:35.877Z,8.70
2019-04-10T14:18:06.101Z,8.70
2019-04-10T14:20:36.434Z,8.70
2019-04-10T14:23:10.370Z,8.70
2019-04-10T14:25:44.797Z,8.70
2019-04-10T14:28:15.268Z,8.70
2019-04-10T14:30:47.271Z,8.70
2019-04-10T14:33:17.867Z,8.70
2019-04-10T14:35:47.897Z,8.70
2019-04-10T14:38:18.985Z,8.70
2019-04-10T14:40:49.390Z,8.60
2019-04-10T14:43:19.475Z,8.70
2019-04-10T14:45:49.967Z,8.60
2019-04-10T14:48:20.245Z,8.60
2019-04-10T14:50:49.745Z,8.50
2019-04-10T14:53:20.255Z,8.50
2019-04-10T14:55:53.509Z,8.50
2019-04-10T14:58:28.136Z,8.50
2019-04-10T15:00:59.837Z,8.50
2019-04-10T15:03:30.688Z,8.50
2019-04-10T15:06:04.907Z,8.50
2019-04-10T15:08:35.925Z,8.50
2019-04-10T15:11:06.608Z,8.50
2019-04-10T15:13:36.229Z,8.50
2019-04-10T15:16:07.152Z,8.50
2019-04-10T15:18:37.218Z,8.50
2019-04-10T15:21:06.992Z,8.50
2019-04-10T15:23:37.026Z,8.40
2019-04-10T15:26:06.485Z,8.40
2019-04-10T15:28:36.082Z,8.40
2019-04-10T15:31:06.778Z,8.40
2019-04-10T15:33:37.586Z,8.50
2019-04-10T15:36:09.677Z,8.50
2019-04-10T15:38:40.479Z,8.50
2019-04-10T15:41:18.887Z,8.50
2019-04-10T15:43:57.347Z,8.50
2019-04-10T15:46:39.355Z,8.50
2019-04-10T15:49:22.882Z,8.50
2019-04-10T15:52:10.094Z,8.50
2019-04-10T15:54:55.446Z,8.50
2019-04-10T15:57:53.832Z,8.50
2019-04-10T16:00:23.294Z,8.40
2019-04-10T16:02:58.162Z,8.40
2019-04-10T16:05:50.146Z,8.40
2019-04-10T16:08:29.951Z,8.30
2019-04-10T16:11:09.822Z,8.30
2019-04-10T16:13:42.308Z,8.30
2019-04-10T16:16:34.290Z,8.30
2019-04-10T16:19:25.218Z,8.20
2019-04-10T16:22:01.204Z,8.20
2019-04-10T16:24:38.749Z,8.20
2019-04-10T16:27:16.119Z,8.20
2019-04-10T16:35:46.195Z,8.10
2019-04-10T16:38:29.068Z,8.00
2019-04-10T16:41:04.727Z,8.00
2019-04-10T16:43:41.268Z,8.00
2019-04-10T16:49:27.550Z,7.90
2019-04-10T16:52:04.939Z,7.90
2019-04-10T16:54:57.592Z,7.90
2019-04-10T16:57:39.836Z,7.90
2019-04-10T17:03:13.659Z,7.80
2019-04-10T17:05:55.709Z,7.70
2019-04-10T17:08:48.090Z,7.70
2019-04-10T17:11:23.047Z,7.70
2019-04-10T17:16:44.064Z,7.70
2019-04-10T17:19:28.703Z,7.60
2019-04-10T17:25:09.624Z,7.60
2019-04-10T17:27:56.330Z,7.60
2019-04-10T17:30:31.326Z,7.60
2019-04-10T17:33:07.284Z,7.60
2019-04-10T17:35:51.772Z,7.50
2019-04-10T17:38:26.745Z,7.50
2019-04-10T17:41:03.844Z,7.50
2019-04-10T17:43:35.453Z,7.50
2019-04-10T17:46:07.595Z,7.50
2019-04-10T17:48:44.502Z,7.50
2019-04-10T17:51:19.780Z,7.40
2019-04-10T17:53:51.912Z,7.40
2019-04-10T17:56:24.264Z,7.40
2019-04-10T17:58:58.188Z,7.40
2019-04-10T18:01:47.541Z,7.40
2019-04-10T18:04:24.267Z,7.30
2019-04-10T18:06:58.246Z,7.30
2019-04-10T18:09:30.988Z,7.30
2019-04-10T18:12:06.038Z,7.30
2019-04-10T18:14:49.854Z,7.30
2019-04-10T18:17:23.082Z,7.20
2019-04-10T18:19:54.688Z,7.20
2019-04-10T18:22:26.816Z,7.20
2019-04-10T18:25:01.390Z,7.20
2019-04-10T18:27:43.351Z,7.20
2019-04-10T18:30:24.797Z,7.10
2019-04-10T18:33:03.393Z,7.10
2019-04-10T18:36:02.963Z,7.10
2019-04-10T18:38:37.894Z,7.10
2019-04-10T18:41:12.226Z,7.10
2019-04-10T18:43:58.474Z,7.10
2019-04-10T18:46:37.667Z,7.10
2019-04-10T18:49:17.481Z,7.00
2019-04-10T18:51:56.939Z,7.00
2019-04-10T18:54:39.473Z,7.00
2019-04-10T18:57:16.209Z,7.00
2019-04-10T19:00:10.224Z,7.00
2019-04-10T19:02:59.266Z,7.00
2019-04-10T19:05:43.597Z,7.00
2019-04-10T19:08:17.703Z,6.90
2019-04-10T19:14:03.936Z,6.90
2019-04-10T19:22:42.467Z,6.80
2019-04-10T19:25:23.033Z,6.80
2019-04-10T19:28:01.290Z,6.80
2019-04-10T19:30:53.202Z,6.80
2019-04-10T19:33:31.374Z,6.80
2019-04-10T19:39:00.039Z,6.70
2019-04-10T19:41:36.678Z,6.70
2019-04-10T19:44:35.250Z,6.70
2019-04-10T19:47:10.392Z,6.70
2019-04-10T19:52:50.808Z,6.60
2019-04-10T19:55:25.114Z,6.60
2019-04-10T19:58:11.056Z,6.60
2019-04-10T20:00:48.771Z,6.50
2019-04-10T20:03:29.922Z,6.50
2019-04-10T20:06:05.897Z,6.50
2019-04-10T20:08:41.844Z,6.40
2019-04-10T20:11:42.080Z,6.40
2019-04-10T20:14:16.847Z,6.30
2019-04-10T20:16:55.466Z,6.30
2019-04-10T20:19:38.778Z,6.20
2019-04-10T20:22:20.943Z,6.20
2019-04-10T20:24:56.872Z,6.10
2019-04-10T20:27:38.276Z,6.10
2019-04-10T20:30:20.633Z,6.10
2019-04-10T20:33:06.612Z,6.00
2019-04-10T20:35:42.544Z,6.00
2019-04-10T20:38:20.455Z,6.00
2019-04-10T20:40:54.042Z,5.90
2019-04-10T20:43:30.556Z,5.90
2019-04-10T20:46:22.638Z,5.80
2019-04-10T20:48:55.578Z,5.80
2019-04-10T20:51:30.412Z,5.80
2019-04-10T20:54:20.847Z,5.80
2019-04-10T20:57:06.503Z,5.80
2019-04-10T20:59:37.547Z,5.70
2019-04-10T21:02:18.064Z,5.70
2019-04-10T21:05:06.351Z,5.60
2019-04-10T21:07:37.449Z,5.60
2019-04-10T21:10:15.003Z,5.60
2019-04-10T21:13:21.920Z,5.60
2019-04-10T21:15:44.665Z,5.60
2019-04-10T21:18:21.941Z,5.60
2019-04-10T21:20:59.490Z,5.50
2019-04-10T21:23:35.868Z,5.50
2019-04-10T21:26:12.186Z,5.50
2019-04-10T21:28:44.381Z,5.50
2019-04-10T21:32:26.395Z,5.40
2019-04-10T21:34:30.449Z,5.40
2019-04-10T21:37:20.102Z,5.40
2019-04-10T21:39:54.964Z,5.40
2019-04-10T21:42:37.329Z,5.30
2019-04-10T21:45:20.152Z,5.30
2019-04-10T21:47:54.800Z,5.30
2019-04-10T21:50:26.982Z,5.30
2019-04-10T21:53:04.372Z,5.30
2019-04-10T21:55:39.648Z,5.20
2019-04-10T21:58:13.043Z,5.20
2019-04-10T22:00:59.106Z,5.20
2019-04-10T22:03:36.493Z,5.20
2019-04-10T22:06:28.037Z,5.10
2019-04-10T22:09:10.883Z,5.10
2019-04-10T22:11:51.402Z,5.20
2019-04-10T22:14:30.128Z,5.10
2019-04-10T22:17:17.446Z,5.10
2019-04-10T22:20:01.802Z,5.10
2019-04-10T22:22:42.940Z,5.10
2019-04-10T22:28:08.963Z,5.10
2019-04-10T22:30:52.665Z,5.00
2019-04-10T22:33:27.797Z,5.00
2019-04-10T22:36:07.067Z,5.00
2019-04-10T22:39:04.731Z,5.00
2019-04-10T22:41:41.031Z,5.00
2019-04-10T22:44:34.036Z,5.00
2019-04-10T22:47:09.206Z,5.00
2019-04-10T22:52:32.508Z,5.00
2019-04-10T22:55:07.692Z,5.00
2019-04-10T23:00:22.376Z,5.00
2019-04-10T23:03:00.851Z,5.00
2019-04-10T23:05:46.862Z,5.00
2019-04-10T23:08:33.827Z,5.00
2019-04-10T23:11:03.602Z,4.90
2019-04-10T23:16:30.275Z,4.90
2019-04-10T23:19:05.625Z,4.90
2019-04-10T23:21:47.002Z,4.90
2019-04-10T23:24:32.271Z,4.90
2019-04-10T23:27:17.694Z,4.90
2019-04-10T23:30:00.298Z,4.90
2019-04-10T23:33:06.262Z,4.90
2019-04-10T23:35:11.545Z,4.90
2019-04-10T23:37:53.117Z,4.90
2019-04-10T23:40:58.971Z,4.80
2019-04-10T23:43:24.195Z,4.80
2019-04-10T23:45:56.473Z,4.90
2019-04-10T23:48:33.675Z,4.80
2019-04-10T23:51:21.126Z,4.80
2019-04-10T23:54:05.252Z,4.80
2019-04-10T23:56:41.928Z,4.80
2019-04-10T23:59:20.533Z,4.80
